sensor_id;sensor_type;location;lat;lon;timestamp;P1;durP1;ratioP1;P2;durP2;ratioP2
73266;SDS011;61495;53.400;7.608;2024-03-06T00:01:47;15.18;;;7.13;;
73266;SDS011;61495;53.400;7.608;2024-03-06T00:05:10;12.98;;;7.03;;
73266;SDS011;61495;53.400;7.608;2024-03-06T00:08:38;15.50;;;7.95;;
73266;SDS011;61495;53.400;7.608;2024-03-06T00:12:02;14.20;;;7.40;;
73266;SDS011;61495;53.400;7.608;2024-03-06T00:15:26;10.68;;;6.57;;
73266;SDS011;61495;53.400;7.608;2024-03-06T00:18:53;13.40;;;6.43;;
73266;SDS011;61495;53.400;7.608;2024-03-06T00:22:17;14.73;;;7.55;;
73266;SDS011;61495;53.400;7.608;2024-03-06T00:25:42;14.75;;;7.68;;
73266;SDS011;61495;53.400;7.608;2024-03-06T00:29:12;14.13;;;6.82;;
73266;SDS011;61495;53.400;7.608;2024-03-06T00:32:36;11.45;;;6.10;;
73266;SDS011;61495;53.400;7.608;2024-03-06T00:36:00;16.05;;;8.13;;
73266;SDS011;61495;53.400;7.608;2024-03-06T00:39:30;13.50;;;7.70;;
73266;SDS011;61495;53.400;7.608;2024-03-06T00:42:58;16.85;;;7.72;;
73266;SDS011;61495;53.400;7.608;2024-03-06T00:46:22;14.23;;;7.93;;
73266;SDS011;61495;53.400;7.608;2024-03-06T00:49:46;14.00;;;7.13;;
73266;SDS011;61495;53.400;7.608;2024-03-06T00:53:11;16.15;;;7.40;;
73266;SDS011;61495;53.400;7.608;2024-03-06T00:56:38;14.40;;;7.38;;
73266;SDS011;61495;53.400;7.608;2024-03-06T01:00:05;15.43;;;7.68;;
73266;SDS011;61495;53.400;7.608;2024-03-06T01:03:29;15.45;;;7.05;;
73266;SDS011;61495;53.400;7.608;2024-03-06T01:06:54;13.95;;;6.00;;
73266;SDS011;61495;53.400;7.608;2024-03-06T01:10:19;14.02;;;7.20;;
73266;SDS011;61495;53.400;7.608;2024-03-06T01:13:43;13.52;;;7.25;;
73266;SDS011;61495;53.400;7.608;2024-03-06T01:17:07;12.57;;;7.18;;
73266;SDS011;61495;53.400;7.608;2024-03-06T01:20:31;12.57;;;7.40;;
73266;SDS011;61495;53.400;7.608;2024-03-06T01:23:55;13.60;;;6.93;;
73266;SDS011;61495;53.400;7.608;2024-03-06T01:27:19;13.63;;;7.45;;
73266;SDS011;61495;53.400;7.608;2024-03-06T01:30:43;16.30;;;7.32;;
73266;SDS011;61495;53.400;7.608;2024-03-06T01:34:07;14.27;;;8.43;;
73266;SDS011;61495;53.400;7.608;2024-03-06T01:37:38;17.60;;;8.07;;
73266;SDS011;61495;53.400;7.608;2024-03-06T01:41:03;14.65;;;7.70;;
73266;SDS011;61495;53.400;7.608;2024-03-06T01:44:27;13.45;;;6.97;;
73266;SDS011;61495;53.400;7.608;2024-03-06T01:47:51;14.88;;;8.50;;
73266;SDS011;61495;53.400;7.608;2024-03-06T01:51:15;16.33;;;7.78;;
73266;SDS011;61495;53.400;7.608;2024-03-06T01:54:42;13.77;;;6.85;;
73266;SDS011;61495;53.400;7.608;2024-03-06T01:58:08;11.70;;;6.57;;
73266;SDS011;61495;53.400;7.608;2024-03-06T02:01:32;14.93;;;7.22;;
73266;SDS011;61495;53.400;7.608;2024-03-06T02:04:56;15.95;;;7.40;;
73266;SDS011;61495;53.400;7.608;2024-03-06T02:08:28;15.05;;;7.90;;
73266;SDS011;61495;53.400;7.608;2024-03-06T02:11:52;15.00;;;7.40;;
73266;SDS011;61495;53.400;7.608;2024-03-06T02:15:17;16.90;;;7.97;;
73266;SDS011;61495;53.400;7.608;2024-03-06T02:18:54;16.40;;;7.53;;
73266;SDS011;61495;53.400;7.608;2024-03-06T02:22:19;16.30;;;7.80;;
73266;SDS011;61495;53.400;7.608;2024-03-06T02:25:44;14.65;;;7.25;;
73266;SDS011;61495;53.400;7.608;2024-03-06T02:29:08;15.18;;;7.15;;
73266;SDS011;61495;53.400;7.608;2024-03-06T02:32:32;14.05;;;7.13;;
73266;SDS011;61495;53.400;7.608;2024-03-06T02:35:58;13.55;;;7.25;;
73266;SDS011;61495;53.400;7.608;2024-03-06T02:39:22;13.52;;;6.82;;
73266;SDS011;61495;53.400;7.608;2024-03-06T02:42:46;11.55;;;6.03;;
73266;SDS011;61495;53.400;7.608;2024-03-06T02:46:10;12.73;;;6.30;;
73266;SDS011;61495;53.400;7.608;2024-03-06T02:49:34;14.90;;;7.28;;
73266;SDS011;61495;53.400;7.608;2024-03-06T02:52:58;14.18;;;7.65;;
73266;SDS011;61495;53.400;7.608;2024-03-06T02:56:22;16.35;;;7.50;;
73266;SDS011;61495;53.400;7.608;2024-03-06T02:59:46;16.50;;;6.70;;
73266;SDS011;61495;53.400;7.608;2024-03-06T03:03:10;14.18;;;7.30;;
73266;SDS011;61495;53.400;7.608;2024-03-06T03:06:35;14.25;;;6.47;;
73266;SDS011;61495;53.400;7.608;2024-03-06T03:10:04;14.60;;;7.35;;
73266;SDS011;61495;53.400;7.608;2024-03-06T03:13:29;14.45;;;7.22;;
73266;SDS011;61495;53.400;7.608;2024-03-06T03:16:52;12.77;;;5.97;;
73266;SDS011;61495;53.400;7.608;2024-03-06T03:20:17;13.20;;;6.82;;
73266;SDS011;61495;53.400;7.608;2024-03-06T03:23:41;13.73;;;7.35;;
73266;SDS011;61495;53.400;7.608;2024-03-06T03:27:06;12.70;;;6.50;;
73266;SDS011;61495;53.400;7.608;2024-03-06T03:30:30;16.38;;;7.35;;
73266;SDS011;61495;53.400;7.608;2024-03-06T03:33:54;12.30;;;6.28;;
73266;SDS011;61495;53.400;7.608;2024-03-06T03:37:21;11.93;;;6.03;;
73266;SDS011;61495;53.400;7.608;2024-03-06T03:40:45;13.27;;;6.22;;
73266;SDS011;61495;53.400;7.608;2024-03-06T03:44:16;11.43;;;6.55;;
73266;SDS011;61495;53.400;7.608;2024-03-06T03:47:42;13.73;;;6.40;;
73266;SDS011;61495;53.400;7.608;2024-03-06T03:51:06;12.45;;;6.68;;
73266;SDS011;61495;53.400;7.608;2024-03-06T03:54:30;10.65;;;6.00;;
73266;SDS011;61495;53.400;7.608;2024-03-06T03:57:54;13.93;;;7.10;;
73266;SDS011;61495;53.400;7.608;2024-03-06T04:01:18;14.63;;;6.75;;
73266;SDS011;61495;53.400;7.608;2024-03-06T04:04:42;14.25;;;6.97;;
73266;SDS011;61495;53.400;7.608;2024-03-06T04:08:14;14.65;;;6.72;;
73266;SDS011;61495;53.400;7.608;2024-03-06T04:11:39;12.18;;;6.28;;
73266;SDS011;61495;53.400;7.608;2024-03-06T04:15:04;12.57;;;6.38;;
73266;SDS011;61495;53.400;7.608;2024-03-06T04:18:29;14.48;;;7.03;;
73266;SDS011;61495;53.400;7.608;2024-03-06T04:21:53;12.45;;;6.72;;
73266;SDS011;61495;53.400;7.608;2024-03-06T04:25:18;12.82;;;6.20;;
73266;SDS011;61495;53.400;7.608;2024-03-06T04:28:43;14.38;;;6.70;;
73266;SDS011;61495;53.400;7.608;2024-03-06T04:32:07;12.65;;;6.82;;
73266;SDS011;61495;53.400;7.608;2024-03-06T04:35:31;12.40;;;6.00;;
73266;SDS011;61495;53.400;7.608;2024-03-06T04:39:04;11.68;;;6.55;;
73266;SDS011;61495;53.400;7.608;2024-03-06T04:42:32;14.27;;;6.70;;
73266;SDS011;61495;53.400;7.608;2024-03-06T04:45:56;13.80;;;7.38;;
73266;SDS011;61495;53.400;7.608;2024-03-06T04:49:21;15.05;;;8.25;;
73266;SDS011;61495;53.400;7.608;2024-03-06T04:52:45;13.35;;;6.93;;
73266;SDS011;61495;53.400;7.608;2024-03-06T04:56:10;13.73;;;7.43;;
73266;SDS011;61495;53.400;7.608;2024-03-06T04:59:34;13.63;;;6.72;;
73266;SDS011;61495;53.400;7.608;2024-03-06T05:02:58;14.38;;;6.70;;
73266;SDS011;61495;53.400;7.608;2024-03-06T05:06:22;14.32;;;6.57;;
73266;SDS011;61495;53.400;7.608;2024-03-06T05:09:56;12.57;;;6.30;;
73266;SDS011;61495;53.400;7.608;2024-03-06T05:13:20;12.30;;;6.40;;
73266;SDS011;61495;53.400;7.608;2024-03-06T05:16:45;15.23;;;6.95;;
73266;SDS011;61495;53.400;7.608;2024-03-06T05:20:09;14.00;;;6.10;;
73266;SDS011;61495;53.400;7.608;2024-03-06T05:23:33;14.63;;;6.22;;
73266;SDS011;61495;53.400;7.608;2024-03-06T05:26:58;12.57;;;6.05;;
73266;SDS011;61495;53.400;7.608;2024-03-06T05:30:22;13.18;;;6.80;;
73266;SDS011;61495;53.400;7.608;2024-03-06T05:33:48;15.18;;;7.40;;
73266;SDS011;61495;53.400;7.608;2024-03-06T05:37:13;12.85;;;6.53;;
73266;SDS011;61495;53.400;7.608;2024-03-06T05:40:36;14.18;;;7.05;;
73266;SDS011;61495;53.400;7.608;2024-03-06T05:44:00;14.98;;;7.38;;
73266;SDS011;61495;53.400;7.608;2024-03-06T05:47:30;13.65;;;7.72;;
73266;SDS011;61495;53.400;7.608;2024-03-06T05:50:54;15.25;;;6.80;;
73266;SDS011;61495;53.400;7.608;2024-03-06T05:54:22;14.73;;;7.07;;
73266;SDS011;61495;53.400;7.608;2024-03-06T05:57:46;15.45;;;7.38;;
73266;SDS011;61495;53.400;7.608;2024-03-06T06:01:12;14.98;;;7.15;;
73266;SDS011;61495;53.400;7.608;2024-03-06T06:04:36;13.95;;;6.53;;
73266;SDS011;61495;53.400;7.608;2024-03-06T06:08:02;15.80;;;7.20;;
73266;SDS011;61495;53.400;7.608;2024-03-06T06:11:26;13.40;;;7.50;;
73266;SDS011;61495;53.400;7.608;2024-03-06T06:14:50;14.90;;;7.53;;
73266;SDS011;61495;53.400;7.608;2024-03-06T06:18:14;16.05;;;7.43;;
73266;SDS011;61495;53.400;7.608;2024-03-06T06:21:38;11.95;;;6.55;;
73266;SDS011;61495;53.400;7.608;2024-03-06T06:25:03;16.33;;;6.68;;
73266;SDS011;61495;53.400;7.608;2024-03-06T06:28:27;14.20;;;7.13;;
73266;SDS011;61495;53.400;7.608;2024-03-06T06:31:50;14.00;;;7.38;;
73266;SDS011;61495;53.400;7.608;2024-03-06T06:35:14;16.48;;;7.95;;
73266;SDS011;61495;53.400;7.608;2024-03-06T06:38:44;13.75;;;6.97;;
73266;SDS011;61495;53.400;7.608;2024-03-06T06:42:09;15.43;;;7.35;;
73266;SDS011;61495;53.400;7.608;2024-03-06T06:45:33;16.02;;;7.57;;
73266;SDS011;61495;53.400;7.608;2024-03-06T06:48:57;11.90;;;7.05;;
73266;SDS011;61495;53.400;7.608;2024-03-06T06:52:21;15.90;;;7.32;;
73266;SDS011;61495;53.400;7.608;2024-03-06T06:55:45;13.95;;;7.18;;
73266;SDS011;61495;53.400;7.608;2024-03-06T06:59:09;15.27;;;7.03;;
73266;SDS011;61495;53.400;7.608;2024-03-06T07:02:39;11.77;;;7.35;;
73266;SDS011;61495;53.400;7.608;2024-03-06T07:06:03;16.85;;;7.25;;
73266;SDS011;61495;53.400;7.608;2024-03-06T07:09:36;16.38;;;8.25;;
73266;SDS011;61495;53.400;7.608;2024-03-06T07:13:02;11.48;;;6.45;;
73266;SDS011;61495;53.400;7.608;2024-03-06T07:16:26;16.63;;;7.75;;
73266;SDS011;61495;53.400;7.608;2024-03-06T07:19:50;16.13;;;6.68;;
73266;SDS011;61495;53.400;7.608;2024-03-06T07:23:14;12.70;;;6.68;;
73266;SDS011;61495;53.400;7.608;2024-03-06T07:26:38;13.73;;;7.30;;
73266;SDS011;61495;53.400;7.608;2024-03-06T07:30:02;13.43;;;6.85;;
73266;SDS011;61495;53.400;7.608;2024-03-06T07:33:27;15.90;;;7.13;;
73266;SDS011;61495;53.400;7.608;2024-03-06T07:36:52;12.15;;;6.35;;
73266;SDS011;61495;53.400;7.608;2024-03-06T07:40:21;12.60;;;6.97;;
73266;SDS011;61495;53.400;7.608;2024-03-06T07:43:45;13.57;;;6.47;;
73266;SDS011;61495;53.400;7.608;2024-03-06T07:47:09;15.48;;;7.18;;
73266;SDS011;61495;53.400;7.608;2024-03-06T07:50:34;13.88;;;7.05;;
73266;SDS011;61495;53.400;7.608;2024-03-06T07:53:58;17.05;;;7.25;;
73266;SDS011;61495;53.400;7.608;2024-03-06T07:57:23;11.07;;;6.60;;
73266;SDS011;61495;53.400;7.608;2024-03-06T08:00:47;18.58;;;8.07;;
73266;SDS011;61495;53.400;7.608;2024-03-06T08:04:11;14.55;;;6.93;;
73266;SDS011;61495;53.400;7.608;2024-03-06T08:07:42;12.40;;;6.65;;
73266;SDS011;61495;53.400;7.608;2024-03-06T08:14:35;13.77;;;6.90;;
73266;SDS011;61495;53.400;7.608;2024-03-06T08:17:59;13.35;;;6.95;;
73266;SDS011;61495;53.400;7.608;2024-03-06T08:21:25;13.48;;;6.80;;
73266;SDS011;61495;53.400;7.608;2024-03-06T08:24:48;13.48;;;6.55;;
73266;SDS011;61495;53.400;7.608;2024-03-06T08:28:12;16.33;;;7.15;;
73266;SDS011;61495;53.400;7.608;2024-03-06T08:31:36;12.88;;;6.95;;
73266;SDS011;61495;53.400;7.608;2024-03-06T08:35:04;11.32;;;5.93;;
73266;SDS011;61495;53.400;7.608;2024-03-06T08:38:29;14.73;;;6.85;;
73266;SDS011;61495;53.400;7.608;2024-03-06T08:41:54;16.90;;;8.38;;
73266;SDS011;61495;53.400;7.608;2024-03-06T08:45:18;13.45;;;6.40;;
73266;SDS011;61495;53.400;7.608;2024-03-06T08:48:42;14.52;;;7.80;;
73266;SDS011;61495;53.400;7.608;2024-03-06T08:52:06;15.25;;;7.40;;
73266;SDS011;61495;53.400;7.608;2024-03-06T08:55:30;12.70;;;6.90;;
73266;SDS011;61495;53.400;7.608;2024-03-06T08:58:54;13.32;;;7.25;;
73266;SDS011;61495;53.400;7.608;2024-03-06T09:02:19;14.13;;;6.88;;
73266;SDS011;61495;53.400;7.608;2024-03-06T09:05:43;13.25;;;6.97;;
73266;SDS011;61495;53.400;7.608;2024-03-06T09:09:07;12.95;;;6.45;;
73266;SDS011;61495;53.400;7.608;2024-03-06T09:12:31;13.70;;;7.22;;
73266;SDS011;61495;53.400;7.608;2024-03-06T09:15:55;10.70;;;5.95;;
73266;SDS011;61495;53.400;7.608;2024-03-06T09:19:19;14.05;;;6.75;;
73266;SDS011;61495;53.400;7.608;2024-03-06T09:22:43;13.85;;;6.25;;
73266;SDS011;61495;53.400;7.608;2024-03-06T09:26:07;13.93;;;6.82;;
73266;SDS011;61495;53.400;7.608;2024-03-06T09:29:31;16.00;;;7.53;;
73266;SDS011;61495;53.400;7.608;2024-03-06T09:32:55;13.82;;;7.07;;
73266;SDS011;61495;53.400;7.608;2024-03-06T09:36:18;13.48;;;6.50;;
73266;SDS011;61495;53.400;7.608;2024-03-06T09:39:47;13.35;;;6.47;;
73266;SDS011;61495;53.400;7.608;2024-03-06T09:43:11;12.85;;;7.28;;
73266;SDS011;61495;53.400;7.608;2024-03-06T09:46:36;13.65;;;7.18;;
73266;SDS011;61495;53.400;7.608;2024-03-06T09:50:00;13.07;;;7.55;;
73266;SDS011;61495;53.400;7.608;2024-03-06T09:53:27;15.65;;;7.10;;
73266;SDS011;61495;53.400;7.608;2024-03-06T09:56:52;15.18;;;6.53;;
73266;SDS011;61495;53.400;7.608;2024-03-06T10:00:16;14.70;;;7.00;;
73266;SDS011;61495;53.400;7.608;2024-03-06T10:03:40;16.45;;;8.02;;
73266;SDS011;61495;53.400;7.608;2024-03-06T10:07:04;17.75;;;7.78;;
73266;SDS011;61495;53.400;7.608;2024-03-06T10:10:31;15.10;;;7.10;;
73266;SDS011;61495;53.400;7.608;2024-03-06T10:13:57;15.60;;;7.18;;
73266;SDS011;61495;53.400;7.608;2024-03-06T10:17:22;12.73;;;7.15;;
73266;SDS011;61495;53.400;7.608;2024-03-06T10:20:45;12.93;;;6.07;;
73266;SDS011;61495;53.400;7.608;2024-03-06T10:24:19;15.75;;;8.07;;
73266;SDS011;61495;53.400;7.608;2024-03-06T10:27:45;13.05;;;6.78;;
73266;SDS011;61495;53.400;7.608;2024-03-06T10:31:10;15.00;;;6.88;;
73266;SDS011;61495;53.400;7.608;2024-03-06T10:34:35;14.50;;;7.22;;
73266;SDS011;61495;53.400;7.608;2024-03-06T10:38:05;14.57;;;7.25;;
73266;SDS011;61495;53.400;7.608;2024-03-06T10:41:32;15.80;;;9.05;;
73266;SDS011;61495;53.400;7.608;2024-03-06T10:44:58;15.18;;;8.43;;
73266;SDS011;61495;53.400;7.608;2024-03-06T10:48:26;18.02;;;7.28;;
73266;SDS011;61495;53.400;7.608;2024-03-06T10:51:58;15.85;;;8.50;;
73266;SDS011;61495;53.400;7.608;2024-03-06T10:55:22;18.27;;;8.60;;
73266;SDS011;61495;53.400;7.608;2024-03-06T10:58:47;13.13;;;6.75;;
73266;SDS011;61495;53.400;7.608;2024-03-06T11:02:14;15.07;;;7.57;;
73266;SDS011;61495;53.400;7.608;2024-03-06T11:05:40;17.45;;;8.90;;
73266;SDS011;61495;53.400;7.608;2024-03-06T11:09:09;15.23;;;8.50;;
73266;SDS011;61495;53.400;7.608;2024-03-06T11:12:41;14.13;;;7.13;;
73266;SDS011;61495;53.400;7.608;2024-03-06T11:16:05;15.68;;;7.85;;
73266;SDS011;61495;53.400;7.608;2024-03-06T11:23:17;17.30;;;8.13;;
73266;SDS011;61495;53.400;7.608;2024-03-06T11:26:48;15.18;;;8.38;;
73266;SDS011;61495;53.400;7.608;2024-03-06T11:30:46;17.80;;;7.22;;
73266;SDS011;61495;53.400;7.608;2024-03-06T11:34:28;15.73;;;7.93;;
73266;SDS011;61495;53.400;7.608;2024-03-06T11:37:54;16.55;;;7.43;;
73266;SDS011;61495;53.400;7.608;2024-03-06T11:45:13;14.80;;;6.97;;
73266;SDS011;61495;53.400;7.608;2024-03-06T11:48:39;14.98;;;7.72;;
73266;SDS011;61495;53.400;7.608;2024-03-06T11:52:04;14.23;;;8.85;;
73266;SDS011;61495;53.400;7.608;2024-03-06T11:55:30;15.00;;;7.47;;
73266;SDS011;61495;53.400;7.608;2024-03-06T11:58:54;16.92;;;9.10;;
73266;SDS011;61495;53.400;7.608;2024-03-06T12:02:18;14.75;;;7.60;;
73266;SDS011;61495;53.400;7.608;2024-03-06T12:05:44;14.77;;;8.05;;
73266;SDS011;61495;53.400;7.608;2024-03-06T12:09:14;14.23;;;8.05;;
73266;SDS011;61495;53.400;7.608;2024-03-06T12:12:40;13.82;;;8.20;;
73266;SDS011;61495;53.400;7.608;2024-03-06T12:16:06;16.95;;;8.80;;
73266;SDS011;61495;53.400;7.608;2024-03-06T12:19:36;15.13;;;8.45;;
73266;SDS011;61495;53.400;7.608;2024-03-06T12:23:05;13.75;;;8.35;;
73266;SDS011;61495;53.400;7.608;2024-03-06T12:26:30;16.73;;;8.68;;
73266;SDS011;61495;53.400;7.608;2024-03-06T12:29:54;16.48;;;8.52;;
73266;SDS011;61495;53.400;7.608;2024-03-06T12:33:18;17.45;;;8.48;;
73266;SDS011;61495;53.400;7.608;2024-03-06T12:36:42;18.17;;;9.25;;
73266;SDS011;61495;53.400;7.608;2024-03-06T12:40:09;15.40;;;8.35;;
73266;SDS011;61495;53.400;7.608;2024-03-06T12:43:34;18.05;;;9.60;;
73266;SDS011;61495;53.400;7.608;2024-03-06T12:46:57;17.13;;;9.25;;
73266;SDS011;61495;53.400;7.608;2024-03-06T12:50:21;21.63;;;10.30;;
73266;SDS011;61495;53.400;7.608;2024-03-06T12:53:45;15.38;;;8.45;;
73266;SDS011;61495;53.400;7.608;2024-03-06T12:57:10;18.77;;;9.48;;
73266;SDS011;61495;53.400;7.608;2024-03-06T13:00:34;18.63;;;9.25;;
73266;SDS011;61495;53.400;7.608;2024-03-06T13:03:57;18.92;;;10.20;;
73266;SDS011;61495;53.400;7.608;2024-03-06T13:07:24;21.02;;;11.23;;
73266;SDS011;61495;53.400;7.608;2024-03-06T13:10:48;18.48;;;9.65;;
73266;SDS011;61495;53.400;7.608;2024-03-06T13:14:12;18.75;;;9.38;;
73266;SDS011;61495;53.400;7.608;2024-03-06T13:17:36;17.90;;;9.35;;
73266;SDS011;61495;53.400;7.608;2024-03-06T13:21:00;19.75;;;10.88;;
73266;SDS011;61495;53.400;7.608;2024-03-06T13:24:25;20.25;;;10.18;;
73266;SDS011;61495;53.400;7.608;2024-03-06T13:27:49;16.20;;;9.07;;
73266;SDS011;61495;53.400;7.608;2024-03-06T13:31:14;19.15;;;9.82;;
73266;SDS011;61495;53.400;7.608;2024-03-06T13:34:38;22.10;;;11.65;;
73266;SDS011;61495;53.400;7.608;2024-03-06T13:38:06;18.15;;;9.80;;
73266;SDS011;61495;53.400;7.608;2024-03-06T13:41:31;19.00;;;10.20;;
73266;SDS011;61495;53.400;7.608;2024-03-06T13:44:54;21.77;;;10.60;;
73266;SDS011;61495;53.400;7.608;2024-03-06T13:48:19;22.20;;;10.70;;
73266;SDS011;61495;53.400;7.608;2024-03-06T13:52:02;22.08;;;10.20;;
73266;SDS011;61495;53.400;7.608;2024-03-06T13:55:26;19.77;;;10.10;;
73266;SDS011;61495;53.400;7.608;2024-03-06T13:58:50;18.58;;;10.15;;
73266;SDS011;61495;53.400;7.608;2024-03-06T14:02:15;19.48;;;9.32;;
73266;SDS011;61495;53.400;7.608;2024-03-06T14:05:39;18.08;;;10.98;;
73266;SDS011;61495;53.400;7.608;2024-03-06T14:09:10;23.15;;;11.75;;
73266;SDS011;61495;53.400;7.608;2024-03-06T14:12:35;20.08;;;9.73;;
73266;SDS011;61495;53.400;7.608;2024-03-06T14:15:59;19.02;;;10.18;;
73266;SDS011;61495;53.400;7.608;2024-03-06T14:19:23;18.85;;;10.30;;
73266;SDS011;61495;53.400;7.608;2024-03-06T14:22:49;19.63;;;10.93;;
73266;SDS011;61495;53.400;7.608;2024-03-06T14:26:14;16.98;;;9.50;;
73266;SDS011;61495;53.400;7.608;2024-03-06T14:29:38;17.50;;;9.20;;
73266;SDS011;61495;53.400;7.608;2024-03-06T14:33:03;20.88;;;10.18;;
73266;SDS011;61495;53.400;7.608;2024-03-06T14:36:30;22.08;;;11.38;;
73266;SDS011;61495;53.400;7.608;2024-03-06T14:39:58;18.88;;;9.35;;
73266;SDS011;61495;53.400;7.608;2024-03-06T14:43:22;21.73;;;9.98;;
73266;SDS011;61495;53.400;7.608;2024-03-06T14:46:46;20.27;;;10.93;;
73266;SDS011;61495;53.400;7.608;2024-03-06T14:50:12;19.10;;;9.88;;
73266;SDS011;61495;53.400;7.608;2024-03-06T14:53:38;21.20;;;11.27;;
73266;SDS011;61495;53.400;7.608;2024-03-06T14:57:02;20.35;;;10.90;;
73266;SDS011;61495;53.400;7.608;2024-03-06T15:00:26;20.17;;;10.20;;
73266;SDS011;61495;53.400;7.608;2024-03-06T15:03:50;20.50;;;10.07;;
73266;SDS011;61495;53.400;7.608;2024-03-06T15:07:14;23.30;;;11.68;;
73266;SDS011;61495;53.400;7.608;2024-03-06T15:10:39;23.38;;;11.77;;
73266;SDS011;61495;53.400;7.608;2024-03-06T15:14:03;20.13;;;11.65;;
73266;SDS011;61495;53.400;7.608;2024-03-06T15:17:29;22.83;;;12.07;;
73266;SDS011;61495;53.400;7.608;2024-03-06T15:20:58;22.83;;;11.25;;
73266;SDS011;61495;53.400;7.608;2024-03-06T15:24:24;23.63;;;12.15;;
73266;SDS011;61495;53.400;7.608;2024-03-06T15:27:48;25.52;;;12.68;;
73266;SDS011;61495;53.400;7.608;2024-03-06T15:31:12;25.75;;;12.98;;
73266;SDS011;61495;53.400;7.608;2024-03-06T15:34:37;20.88;;;11.23;;
73266;SDS011;61495;53.400;7.608;2024-03-06T15:38:01;22.65;;;11.23;;
73266;SDS011;61495;53.400;7.608;2024-03-06T15:41:31;20.55;;;11.60;;
73266;SDS011;61495;53.400;7.608;2024-03-06T15:44:55;24.88;;;12.35;;
73266;SDS011;61495;53.400;7.608;2024-03-06T15:48:19;26.10;;;12.73;;
73266;SDS011;61495;53.400;7.608;2024-03-06T15:51:45;22.67;;;11.70;;
73266;SDS011;61495;53.400;7.608;2024-03-06T15:55:09;22.08;;;11.88;;
73266;SDS011;61495;53.400;7.608;2024-03-06T15:58:35;24.73;;;12.57;;
73266;SDS011;61495;53.400;7.608;2024-03-06T16:02:01;27.63;;;14.23;;
73266;SDS011;61495;53.400;7.608;2024-03-06T16:05:25;26.60;;;11.30;;
73266;SDS011;61495;53.400;7.608;2024-03-06T16:08:52;27.58;;;12.30;;
73266;SDS011;61495;53.400;7.608;2024-03-06T16:12:17;22.38;;;11.73;;
73266;SDS011;61495;53.400;7.608;2024-03-06T16:15:41;24.90;;;12.00;;
73266;SDS011;61495;53.400;7.608;2024-03-06T16:19:06;27.17;;;12.23;;
73266;SDS011;61495;53.400;7.608;2024-03-06T16:22:31;28.38;;;12.77;;
73266;SDS011;61495;53.400;7.608;2024-03-06T16:25:55;23.80;;;11.70;;
73266;SDS011;61495;53.400;7.608;2024-03-06T16:29:20;27.20;;;12.52;;
73266;SDS011;61495;53.400;7.608;2024-03-06T16:32:46;23.60;;;10.95;;
73266;SDS011;61495;53.400;7.608;2024-03-06T16:36:11;23.05;;;12.45;;
73266;SDS011;61495;53.400;7.608;2024-03-06T16:39:40;28.63;;;13.90;;
73266;SDS011;61495;53.400;7.608;2024-03-06T16:43:05;24.40;;;12.88;;
73266;SDS011;61495;53.400;7.608;2024-03-06T16:46:32;25.77;;;13.27;;
73266;SDS011;61495;53.400;7.608;2024-03-06T16:49:56;25.95;;;14.15;;
73266;SDS011;61495;53.400;7.608;2024-03-06T16:53:20;26.77;;;13.52;;
73266;SDS011;61495;53.400;7.608;2024-03-06T16:56:44;26.17;;;12.43;;
73266;SDS011;61495;53.400;7.608;2024-03-06T17:00:08;28.05;;;12.93;;
73266;SDS011;61495;53.400;7.608;2024-03-06T17:03:32;34.20;;;14.63;;
73266;SDS011;61495;53.400;7.608;2024-03-06T17:06:56;23.38;;;10.82;;
73266;SDS011;61495;53.400;7.608;2024-03-06T17:10:30;22.42;;;11.13;;
73266;SDS011;61495;53.400;7.608;2024-03-06T17:13:54;21.50;;;10.77;;
73266;SDS011;61495;53.400;7.608;2024-03-06T17:17:17;16.25;;;10.00;;
73266;SDS011;61495;53.400;7.608;2024-03-06T17:20:42;19.52;;;9.85;;
73266;SDS011;61495;53.400;7.608;2024-03-06T17:24:06;19.00;;;9.32;;
73266;SDS011;61495;53.400;7.608;2024-03-06T17:27:30;20.27;;;11.00;;
73266;SDS011;61495;53.400;7.608;2024-03-06T17:30:55;17.67;;;9.43;;
73266;SDS011;61495;53.400;7.608;2024-03-06T17:34:19;19.13;;;11.02;;
73266;SDS011;61495;53.400;7.608;2024-03-06T17:37:46;21.58;;;12.13;;
73266;SDS011;61495;53.400;7.608;2024-03-06T17:41:11;18.25;;;10.02;;
73266;SDS011;61495;53.400;7.608;2024-03-06T17:44:35;19.25;;;9.90;;
73266;SDS011;61495;53.400;7.608;2024-03-06T17:47:59;20.75;;;11.02;;
73266;SDS011;61495;53.400;7.608;2024-03-06T17:51:27;17.95;;;9.07;;
73266;SDS011;61495;53.400;7.608;2024-03-06T17:54:51;22.35;;;11.77;;
73266;SDS011;61495;53.400;7.608;2024-03-06T17:58:15;19.08;;;10.30;;
73266;SDS011;61495;53.400;7.608;2024-03-06T18:01:39;19.58;;;9.75;;
73266;SDS011;61495;53.400;7.608;2024-03-06T18:05:03;19.23;;;9.98;;
73266;SDS011;61495;53.400;7.608;2024-03-06T18:08:33;22.63;;;10.68;;
73266;SDS011;61495;53.400;7.608;2024-03-06T18:11:57;21.80;;;9.23;;
73266;SDS011;61495;53.400;7.608;2024-03-06T18:15:21;18.33;;;9.93;;
73266;SDS011;61495;53.400;7.608;2024-03-06T18:18:45;17.05;;;10.68;;
73266;SDS011;61495;53.400;7.608;2024-03-06T18:22:09;15.60;;;8.98;;
73266;SDS011;61495;53.400;7.608;2024-03-06T18:25:36;16.88;;;9.48;;
73266;SDS011;61495;53.400;7.608;2024-03-06T18:29:01;21.05;;;9.25;;
73266;SDS011;61495;53.400;7.608;2024-03-06T18:32:25;16.17;;;8.75;;
73266;SDS011;61495;53.400;7.608;2024-03-06T18:35:49;15.20;;;8.63;;
73266;SDS011;61495;53.400;7.608;2024-03-06T18:39:18;15.25;;;8.82;;
73266;SDS011;61495;53.400;7.608;2024-03-06T18:42:42;18.17;;;9.75;;
73266;SDS011;61495;53.400;7.608;2024-03-06T18:46:07;16.30;;;9.13;;
73266;SDS011;61495;53.400;7.608;2024-03-06T18:49:31;15.15;;;9.18;;
73266;SDS011;61495;53.400;7.608;2024-03-06T18:52:55;14.52;;;7.53;;
73266;SDS011;61495;53.400;7.608;2024-03-06T18:56:19;15.60;;;8.27;;
73266;SDS011;61495;53.400;7.608;2024-03-06T18:59:43;15.50;;;9.55;;
73266;SDS011;61495;53.400;7.608;2024-03-06T19:03:08;16.02;;;9.45;;
73266;SDS011;61495;53.400;7.608;2024-03-06T19:06:35;18.27;;;9.55;;
73266;SDS011;61495;53.400;7.608;2024-03-06T19:09:59;17.05;;;9.18;;
73266;SDS011;61495;53.400;7.608;2024-03-06T19:13:24;14.90;;;8.15;;
73266;SDS011;61495;53.400;7.608;2024-03-06T19:16:48;14.27;;;8.20;;
73266;SDS011;61495;53.400;7.608;2024-03-06T19:20:12;15.93;;;8.07;;
73266;SDS011;61495;53.400;7.608;2024-03-06T19:23:36;16.25;;;8.93;;
73266;SDS011;61495;53.400;7.608;2024-03-06T19:27:00;15.13;;;8.65;;
73266;SDS011;61495;53.400;7.608;2024-03-06T19:30:23;13.73;;;8.20;;
73266;SDS011;61495;53.400;7.608;2024-03-06T19:33:47;15.68;;;8.20;;
73266;SDS011;61495;53.400;7.608;2024-03-06T19:37:11;16.63;;;8.88;;
73266;SDS011;61495;53.400;7.608;2024-03-06T19:40:39;16.25;;;9.35;;
73266;SDS011;61495;53.400;7.608;2024-03-06T19:44:05;14.57;;;7.95;;
73266;SDS011;61495;53.400;7.608;2024-03-06T19:50:53;16.50;;;9.05;;
73266;SDS011;61495;53.400;7.608;2024-03-06T19:54:18;13.93;;;7.40;;
73266;SDS011;61495;53.400;7.608;2024-03-06T19:57:44;14.73;;;8.82;;
73266;SDS011;61495;53.400;7.608;2024-03-06T20:01:08;13.43;;;7.93;;
73266;SDS011;61495;53.400;7.608;2024-03-06T20:04:32;22.42;;;7.97;;
73266;SDS011;61495;53.400;7.608;2024-03-06T20:08:05;14.40;;;7.93;;
73266;SDS011;61495;53.400;7.608;2024-03-06T20:11:30;13.13;;;7.68;;
73266;SDS011;61495;53.400;7.608;2024-03-06T20:14:54;12.15;;;7.47;;
73266;SDS011;61495;53.400;7.608;2024-03-06T20:18:18;14.20;;;6.80;;
73266;SDS011;61495;53.400;7.608;2024-03-06T20:21:44;12.77;;;6.97;;
73266;SDS011;61495;53.400;7.608;2024-03-06T20:25:08;11.80;;;7.50;;
73266;SDS011;61495;53.400;7.608;2024-03-06T20:28:33;15.35;;;7.07;;